sensor_id;sensor_type;location;lat;lon;timestamp;pressure;altitude;pressure_sealevel;temperature;humidity
34328;BME280;20588;48.840;10.064;2022-11-25T00:01:17;96417.88;;;-0.41;nan
34328;BME280;20588;48.840;10.064;2022-11-25T00:03:44;96418.94;;;-0.44;nan
34328;BME280;20588;48.840;10.064;2022-11-25T00:06:32;96414.97;;;-0.46;nan
34328;BME280;20588;48.840;10.064;2022-11-25T00:09:07;96417.94;;;-0.51;nan
34328;BME280;20588;48.840;10.064;2022-11-25T00:11:35;96421.25;;;-0.50;nan
34328;BME280;20588;48.840;10.064;2022-11-25T00:14:02;96416.22;;;-0.50;nan
34328;BME280;20588;48.840;10.064;2022-11-25T00:16:28;96413.81;;;-0.52;nan
34328;BME280;20588;48.840;10.064;2022-11-25T00:18:56;96420.59;;;-0.52;nan
34328;BME280;20588;48.840;10.064;2022-11-25T00:21:28;96407.47;;;-0.56;nan
34328;BME280;20588;48.840;10.064;2022-11-25T00:23:58;96411.75;;;-0.56;nan
34328;BME280;20588;48.840;10.064;2022-11-25T00:26:25;96410.66;;;-0.54;nan
34328;BME280;20588;48.840;10.064;2022-11-25T00:28:52;96411.75;;;-0.56;nan
34328;BME280;20588;48.840;10.064;2022-11-25T00:31:24;96411.88;;;-0.58;nan
34328;BME280;20588;48.840;10.064;2022-11-25T00:33:51;96415.63;;;-0.62;nan
34328;BME280;20588;48.840;10.064;2022-11-25T00:36:32;96409.50;;;-0.59;nan
34328;BME280;20588;48.840;10.064;2022-11-25T00:39:09;96408.19;;;-0.63;nan
34328;BME280;20588;48.840;10.064;2022-11-25T00:41:35;96411.00;;;-0.66;nan
34328;BME280;20588;48.840;10.064;2022-11-25T00:44:28;96408.75;;;-0.69;nan
34328;BME280;20588;48.840;10.064;2022-11-25T00:49:27;96408.28;;;-0.73;nan
34328;BME280;20588;48.840;10.064;2022-11-25T00:51:54;96408.38;;;-0.74;nan
34328;BME280;20588;48.840;10.064;2022-11-25T00:54:20;96414.09;;;-0.72;nan
34328;BME280;20588;48.840;10.064;2022-11-25T00:56:46;96425.28;;;-0.75;nan
34328;BME280;20588;48.840;10.064;2022-11-25T00:59:12;96423.81;;;-0.77;nan
34328;BME280;20588;48.840;10.064;2022-11-25T01:01:39;96429.66;;;-0.77;nan
34328;BME280;20588;48.840;10.064;2022-11-25T01:04:06;96429.16;;;-0.80;nan
34328;BME280;20588;48.840;10.064;2022-11-25T01:06:33;96434.06;;;-0.79;nan
34328;BME280;20588;48.840;10.064;2022-11-25T01:08:59;96434.72;;;-0.77;nan
34328;BME280;20588;48.840;10.064;2022-11-25T01:11:25;96437.09;;;-0.75;nan
34328;BME280;20588;48.840;10.064;2022-11-25T01:13:52;96432.84;;;-0.75;nan
34328;BME280;20588;48.840;10.064;2022-11-25T01:16:22;96433.00;;;-0.76;nan
34328;BME280;20588;48.840;10.064;2022-11-25T01:18:48;96434.59;;;-0.75;nan
34328;BME280;20588;48.840;10.064;2022-11-25T01:21:20;96436.44;;;-0.77;nan
34328;BME280;20588;48.840;10.064;2022-11-25T01:23:47;96439.63;;;-0.75;nan
34328;BME280;20588;48.840;10.064;2022-11-25T01:26:16;96441.22;;;-0.74;nan
34328;BME280;20588;48.840;10.064;2022-11-25T01:28:43;96442.81;;;-0.73;nan
34328;BME280;20588;48.840;10.064;2022-11-25T01:31:18;96437.63;;;-0.72;nan
34328;BME280;20588;48.840;10.064;2022-11-25T01:33:45;96435.75;;;-0.70;nan
34328;BME280;20588;48.840;10.064;2022-11-25T01:36:16;96431.47;;;-0.69;nan
34328;BME280;20588;48.840;10.064;2022-11-25T01:38:44;96442.09;;;-0.66;nan
34328;BME280;20588;48.840;10.064;2022-11-25T01:41:13;96442.75;;;-0.64;nan
34328;BME280;20588;48.840;10.064;2022-11-25T01:43:40;96432.38;;;-0.61;nan
34328;BME280;20588;48.840;10.064;2022-11-25T01:46:07;96432.09;;;-0.58;nan
34328;BME280;20588;48.840;10.064;2022-11-25T01:48:54;96431.13;;;-0.57;nan
34328;BME280;20588;48.840;10.064;2022-11-25T01:52:26;96431.00;;;-0.55;nan
34328;BME280;20588;48.840;10.064;2022-11-25T01:54:24;96432.44;;;-0.53;nan
34328;BME280;20588;48.840;10.064;2022-11-25T01:56:58;96436.41;;;-0.50;nan
34328;BME280;20588;48.840;10.064;2022-11-25T01:59:26;96433.91;;;-0.50;nan
34328;BME280;20588;48.840;10.064;2022-11-25T02:01:55;96431.09;;;-0.47;nan
34328;BME280;20588;48.840;10.064;2022-11-25T02:04:23;96441.03;;;-0.46;nan
34328;BME280;20588;48.840;10.064;2022-11-25T02:06:54;96439.28;;;-0.45;nan
34328;BME280;20588;48.840;10.064;2022-11-25T02:09:22;96438.38;;;-0.44;nan
34328;BME280;20588;48.840;10.064;2022-11-25T02:11:50;96443.13;;;-0.41;nan
34328;BME280;20588;48.840;10.064;2022-11-25T02:14:18;96442.47;;;-0.43;nan
34328;BME280;20588;48.840;10.064;2022-11-25T02:16:45;96439.00;;;-0.42;nan
34328;BME280;20588;48.840;10.064;2022-11-25T02:19:20;96432.38;;;-0.43;nan
34328;BME280;20588;48.840;10.064;2022-11-25T02:21:57;96436.19;;;-0.39;nan
34328;BME280;20588;48.840;10.064;2022-11-25T02:24:41;96429.56;;;-0.40;nan
34328;BME280;20588;48.840;10.064;2022-11-25T02:27:08;96434.75;;;-0.42;nan
34328;BME280;20588;48.840;10.064;2022-11-25T02:29:34;96435.03;;;-0.45;nan
34328;BME280;20588;48.840;10.064;2022-11-25T02:32:01;96433.31;;;-0.44;nan
34328;BME280;20588;48.840;10.064;2022-11-25T02:34:27;96428.25;;;-0.44;nan
34328;BME280;20588;48.840;10.064;2022-11-25T02:36:53;96422.56;;;-0.46;nan
34328;BME280;20588;48.840;10.064;2022-11-25T02:39:19;96426.03;;;-0.47;nan
34328;BME280;20588;48.840;10.064;2022-11-25T02:41:57;96414.59;;;-0.51;nan
34328;BME280;20588;48.840;10.064;2022-11-25T02:44:24;96423.13;;;-0.52;nan
34328;BME280;20588;48.840;10.064;2022-11-25T02:46:50;96420.91;;;-0.55;nan
34328;BME280;20588;48.840;10.064;2022-11-25T02:49:16;96420.22;;;-0.57;nan
34328;BME280;20588;48.840;10.064;2022-11-25T02:51:44;96413.59;;;-0.58;nan
34328;BME280;20588;48.840;10.064;2022-11-25T02:54:11;96414.84;;;-0.62;nan
34328;BME280;20588;48.840;10.064;2022-11-25T02:56:38;96407.56;;;-0.65;nan
34328;BME280;20588;48.840;10.064;2022-11-25T02:59:05;96404.38;;;-0.67;nan
34328;BME280;20588;48.840;10.064;2022-11-25T03:01:32;96399.47;;;-0.69;nan
34328;BME280;20588;48.840;10.064;2022-11-25T03:04:00;96390.31;;;-0.70;nan
34328;BME280;20588;48.840;10.064;2022-11-25T03:06:28;96396.41;;;-0.72;nan
34328;BME280;20588;48.840;10.064;2022-11-25T03:08:55;96377.31;;;-0.75;nan
34328;BME280;20588;48.840;10.064;2022-11-25T03:11:21;96377.44;;;-0.76;nan
34328;BME280;20588;48.840;10.064;2022-11-25T03:14:07;96381.84;;;-0.78;nan
34328;BME280;20588;48.840;10.064;2022-11-25T03:16:33;96393.81;;;-0.80;nan
34328;BME280;20588;48.840;10.064;2022-11-25T03:18:59;96387.59;;;-0.86;nan
34328;BME280;20588;48.840;10.064;2022-11-25T03:21:25;96391.84;;;-0.86;nan
34328;BME280;20588;48.840;10.064;2022-11-25T03:23:51;96395.59;;;-0.90;nan
34328;BME280;20588;48.840;10.064;2022-11-25T03:26:17;96392.28;;;-0.91;nan
34328;BME280;20588;48.840;10.064;2022-11-25T03:28:43;96390.97;;;-0.95;nan
34328;BME280;20588;48.840;10.064;2022-11-25T03:31:10;96400.28;;;-0.95;nan
34328;BME280;20588;48.840;10.064;2022-11-25T03:33:36;96396.47;;;-0.99;nan
34328;BME280;20588;48.840;10.064;2022-11-25T03:36:02;96395.66;;;-1.00;nan
34328;BME280;20588;48.840;10.064;2022-11-25T03:38:29;96397.41;;;-1.00;nan
34328;BME280;20588;48.840;10.064;2022-11-25T03:40:55;96398.19;;;-1.00;nan
34328;BME280;20588;48.840;10.064;2022-11-25T03:43:21;96406.03;;;-1.03;nan
34328;BME280;20588;48.840;10.064;2022-11-25T03:45:50;96405.53;;;-1.06;nan
34328;BME280;20588;48.840;10.064;2022-11-25T03:48:16;96397.97;;;-1.06;nan
34328;BME280;20588;48.840;10.064;2022-11-25T03:50:42;96405.84;;;-1.09;nan
34328;BME280;20588;48.840;10.064;2022-11-25T03:53:08;96403.44;;;-1.11;nan
34328;BME280;20588;48.840;10.064;2022-11-25T03:55:34;96400.41;;;-1.14;nan
34328;BME280;20588;48.840;10.064;2022-11-25T03:58:00;96396.94;;;-1.13;nan
34328;BME280;20588;48.840;10.064;2022-11-25T04:00:26;96395.50;;;-1.16;nan
34328;BME280;20588;48.840;10.064;2022-11-25T04:02:52;96391.25;;;-1.15;nan
34328;BME280;20588;48.840;10.064;2022-11-25T04:05:18;96392.97;;;-1.16;nan
34328;BME280;20588;48.840;10.064;2022-11-25T04:07:44;96395.63;;;-1.17;nan
34328;BME280;20588;48.840;10.064;2022-11-25T04:10:11;96399.88;;;-1.18;nan
34328;BME280;20588;48.840;10.064;2022-11-25T04:12:37;96398.03;;;-1.16;nan
34328;BME280;20588;48.840;10.064;2022-11-25T04:15:16;96394.69;;;-1.16;nan
34328;BME280;20588;48.840;10.064;2022-11-25T04:17:43;96403.06;;;-1.16;nan
34328;BME280;20588;48.840;10.064;2022-11-25T04:20:11;96403.06;;;-1.16;nan
34328;BME280;20588;48.840;10.064;2022-11-25T04:22:38;96406.81;;;-1.20;nan
34328;BME280;20588;48.840;10.064;2022-11-25T04:25:04;96401.63;;;-1.18;nan
34328;BME280;20588;48.840;10.064;2022-11-25T04:27:31;96405.22;;;-1.21;nan
34328;BME280;20588;48.840;10.064;2022-11-25T04:29:57;96402.81;;;-1.22;nan
34328;BME280;20588;48.840;10.064;2022-11-25T04:32:23;96397.63;;;-1.21;nan
34328;BME280;20588;48.840;10.064;2022-11-25T04:34:49;96387.69;;;-1.22;nan
34328;BME280;20588;48.840;10.064;2022-11-25T04:37:15;96396.06;;;-1.22;nan
34328;BME280;20588;48.840;10.064;2022-11-25T04:39:41;96394.47;;;-1.23;nan
34328;BME280;20588;48.840;10.064;2022-11-25T04:42:07;96391.69;;;-1.20;nan
34328;BME280;20588;48.840;10.064;2022-11-25T04:44:52;96390.59;;;-1.17;nan
34328;BME280;20588;48.840;10.064;2022-11-25T04:47:18;96384.59;;;-1.16;nan
34328;BME280;20588;48.840;10.064;2022-11-25T04:49:44;96394.84;;;-1.18;nan
34328;BME280;20588;48.840;10.064;2022-11-25T04:52:10;96390.06;;;-1.21;nan
34328;BME280;20588;48.840;10.064;2022-11-25T04:54:36;96391.81;;;-1.21;nan
34328;BME280;20588;48.840;10.064;2022-11-25T04:57:02;96394.19;;;-1.20;nan
34328;BME280;20588;48.840;10.064;2022-11-25T04:59:28;96399.47;;;-1.13;nan
34328;BME280;20588;48.840;10.064;2022-11-25T05:02:20;96400.63;;;-1.08;nan
34328;BME280;20588;48.840;10.064;2022-11-25T05:04:49;96403.78;;;-1.06;nan
34328;BME280;20588;48.840;10.064;2022-11-25T05:07:17;96402.59;;;-1.02;nan
34328;BME280;20588;48.840;10.064;2022-11-25T05:09:44;96409.22;;;-1.01;nan
34328;BME280;20588;48.840;10.064;2022-11-25T05:12:13;96407.66;;;-1.02;nan
34328;BME280;20588;48.840;10.064;2022-11-25T05:14:39;96399.13;;;-1.01;nan
34328;BME280;20588;48.840;10.064;2022-11-25T05:17:06;96404.56;;;-0.96;nan
34328;BME280;20588;48.840;10.064;2022-11-25T05:19:32;96410.38;;;-0.95;nan
34328;BME280;20588;48.840;10.064;2022-11-25T05:22:00;96400.41;;;-0.97;nan
34328;BME280;20588;48.840;10.064;2022-11-25T05:24:28;96410.09;;;-0.92;nan
34328;BME280;20588;48.840;10.064;2022-11-25T05:26:54;96407.28;;;-0.89;nan
34328;BME280;20588;48.840;10.064;2022-11-25T05:29:20;96407.13;;;-0.88;nan
34328;BME280;20588;48.840;10.064;2022-11-25T05:31:46;96404.47;;;-0.86;nan
34328;BME280;20588;48.840;10.064;2022-11-25T05:34:12;96405.50;;;-0.79;nan
34328;BME280;20588;48.840;10.064;2022-11-25T05:36:38;96403.06;;;-0.71;nan
34328;BME280;20588;48.840;10.064;2022-11-25T05:39:04;96396.56;;;-0.74;nan
34328;BME280;20588;48.840;10.064;2022-11-25T05:41:31;96402.13;;;-0.70;nan
34328;BME280;20588;48.840;10.064;2022-11-25T05:43:57;96402.13;;;-0.70;nan
34328;BME280;20588;48.840;10.064;2022-11-25T05:46:23;96405.47;;;-0.70;nan
34328;BME280;20588;48.840;10.064;2022-11-25T05:48:55;96411.41;;;-0.71;nan
34328;BME280;20588;48.840;10.064;2022-11-25T05:51:21;96415.75;;;-0.63;nan
34328;BME280;20588;48.840;10.064;2022-11-25T05:53:48;96414.69;;;-0.61;nan
34328;BME280;20588;48.840;10.064;2022-11-25T05:56:14;96409.66;;;-0.61;nan
34328;BME280;20588;48.840;10.064;2022-11-25T05:58:42;96412.16;;;-0.61;nan
34328;BME280;20588;48.840;10.064;2022-11-25T06:01:09;96417.72;;;-0.57;nan
34328;BME280;20588;48.840;10.064;2022-11-25T06:03:36;96420.97;;;-0.47;nan
34328;BME280;20588;48.840;10.064;2022-11-25T06:06:03;96435.03;;;-0.45;nan
34328;BME280;20588;48.840;10.064;2022-11-25T06:08:30;96433.47;;;-0.46;nan
34328;BME280;20588;48.840;10.064;2022-11-25T06:10:56;96438.84;;;-0.41;nan
34328;BME280;20588;48.840;10.064;2022-11-25T06:13:22;96433.47;;;-0.46;nan
34328;BME280;20588;48.840;10.064;2022-11-25T06:15:48;96427.59;;;-0.46;nan
34328;BME280;20588;48.840;10.064;2022-11-25T06:18:16;96428.75;;;-0.41;nan
34328;BME280;20588;48.840;10.064;2022-11-25T06:20:42;96422.91;;;-0.41;nan
34328;BME280;20588;48.840;10.064;2022-11-25T06:23:09;96425.44;;;-0.41;nan
34328;BME280;20588;48.840;10.064;2022-11-25T06:25:35;96428.91;;;-0.42;nan
34328;BME280;20588;48.840;10.064;2022-11-25T06:28:02;96427.75;;;-0.48;nan
34328;BME280;20588;48.840;10.064;2022-11-25T06:30:28;96421.47;;;-0.44;nan
34328;BME280;20588;48.840;10.064;2022-11-25T06:32:55;96423.69;;;-0.41;nan
34328;BME280;20588;48.840;10.064;2022-11-25T06:35:21;96417.72;;;-0.40;nan
34328;BME280;20588;48.840;10.064;2022-11-25T06:37:47;96417.22;;;-0.43;nan
34328;BME280;20588;48.840;10.064;2022-11-25T06:40:13;96416.63;;;-0.37;nan
34328;BME280;20588;48.840;10.064;2022-11-25T06:42:40;96414.09;;;-0.37;nan
34328;BME280;20588;48.840;10.064;2022-11-25T06:45:08;96423.63;;;-0.31;nan
34328;BME280;20588;48.840;10.064;2022-11-25T06:47:34;96426.22;;;-0.23;nan
34328;BME280;20588;48.840;10.064;2022-11-25T06:50:00;96431.44;;;-0.25;nan
34328;BME280;20588;48.840;10.064;2022-11-25T06:52:28;96435.03;;;-0.27;nan
34328;BME280;20588;48.840;10.064;2022-11-25T06:54:54;96444.50;;;-0.29;nan
34328;BME280;20588;48.840;10.064;2022-11-25T06:57:20;96446.38;;;-0.31;nan
34328;BME280;20588;48.840;10.064;2022-11-25T06:59:46;96456.47;;;-0.31;nan
34328;BME280;20588;48.840;10.064;2022-11-25T07:02:13;96460.25;;;-0.35;nan
34328;BME280;20588;48.840;10.064;2022-11-25T07:04:40;96472.38;;;-0.39;nan
34328;BME280;20588;48.840;10.064;2022-11-25T07:07:07;96472.38;;;-0.39;nan
34328;BME280;20588;48.840;10.064;2022-11-25T07:09:33;96470.63;;;-0.38;nan
34328;BME280;20588;48.840;10.064;2022-11-25T07:11:59;96471.28;;;-0.36;nan
34328;BME280;20588;48.840;10.064;2022-11-25T07:14:25;96473.66;;;-0.35;nan
34328;BME280;20588;48.840;10.064;2022-11-25T07:16:51;96474.81;;;-0.29;nan
34328;BME280;20588;48.840;10.064;2022-11-25T07:19:18;96474.22;;;-0.06;nan
34328;BME280;20588;48.840;10.064;2022-11-25T07:21:44;96474.09;;;0.14;nan
34328;BME280;20588;48.840;10.064;2022-11-25T07:24:13;96477.47;;;0.22;nan
34328;BME280;20588;48.840;10.064;2022-11-25T07:26:41;96477.84;;;0.35;nan
34328;BME280;20588;48.840;10.064;2022-11-25T07:29:10;96476.38;;;0.50;nan
34328;BME280;20588;48.840;10.064;2022-11-25T07:31:38;96480.75;;;0.66;nan
34328;BME280;20588;48.840;10.064;2022-11-25T07:34:13;96478.63;;;0.79;nan
34328;BME280;20588;48.840;10.064;2022-11-25T07:36:41;96483.69;;;0.87;nan
34328;BME280;20588;48.840;10.064;2022-11-25T07:39:26;96483.59;;;0.96;nan
34328;BME280;20588;48.840;10.064;2022-11-25T07:41:53;96486.94;;;0.97;nan
34328;BME280;20588;48.840;10.064;2022-11-25T07:44:20;96485.50;;;1.02;nan
34328;BME280;20588;48.840;10.064;2022-11-25T07:46:47;96487.13;;;1.11;nan
34328;BME280;20588;48.840;10.064;2022-11-25T07:49:16;96483.84;;;1.19;nan
34328;BME280;20588;48.840;10.064;2022-11-25T07:51:48;96479.28;;;1.30;nan
34328;BME280;20588;48.840;10.064;2022-11-25T07:54:15;96477.72;;;1.45;nan
34328;BME280;20588;48.840;10.064;2022-11-25T07:56:42;96478.25;;;1.57;nan
34328;BME280;20588;48.840;10.064;2022-11-25T07:59:13;96483.66;;;1.70;nan
34328;BME280;20588;48.840;10.064;2022-11-25T08:01:40;96487.00;;;1.78;nan
34328;BME280;20588;48.840;10.064;2022-11-25T08:04:07;96481.94;;;1.86;nan
34328;BME280;20588;48.840;10.064;2022-11-25T08:06:37;96487.97;;;2.02;nan
34328;BME280;20588;48.840;10.064;2022-11-25T08:09:04;96491.94;;;2.12;nan
34328;BME280;20588;48.840;10.064;2022-11-25T08:11:31;96493.84;;;2.26;nan
34328;BME280;20588;48.840;10.064;2022-11-25T08:13:58;96498.44;;;2.39;nan
34328;BME280;20588;48.840;10.064;2022-11-25T08:16:27;96495.72;;;2.56;nan
34328;BME280;20588;48.840;10.064;2022-11-25T08:18:58;96502.22;;;2.75;nan
34328;BME280;20588;48.840;10.064;2022-11-25T08:21:24;96499.28;;;3.02;nan
34328;BME280;20588;48.840;10.064;2022-11-25T08:23:50;96494.47;;;3.53;nan
34328;BME280;20588;48.840;10.064;2022-11-25T08:26:29;96496.81;;;4.82;nan
34328;BME280;20588;48.840;10.064;2022-11-25T08:28:56;96494.28;;;6.33;nan
34328;BME280;20588;48.840;10.064;2022-11-25T08:31:31;96487.22;;;7.91;nan
34328;BME280;20588;48.840;10.064;2022-11-25T08:33:58;96484.16;;;10.01;nan
34328;BME280;20588;48.840;10.064;2022-11-25T08:36:26;96477.16;;;11.96;nan
34328;BME280;20588;48.840;10.064;2022-11-25T08:41:32;96471.66;;;16.34;nan
34328;BME280;20588;48.840;10.064;2022-11-25T08:44:00;96479.63;;;17.94;nan
34328;BME280;20588;48.840;10.064;2022-11-25T08:46:30;96491.63;;;19.50;nan
34328;BME280;20588;48.840;10.064;2022-11-25T08:48:58;96491.38;;;20.83;nan
34328;BME280;20588;48.840;10.064;2022-11-25T08:51:27;96493.63;;;21.75;nan
34328;BME280;20588;48.840;10.064;2022-11-25T08:53:54;96497.38;;;22.67;nan
34328;BME280;20588;48.840;10.064;2022-11-25T08:56:22;96490.03;;;23.28;nan
34328;BME280;20588;48.840;10.064;2022-11-25T08:58:49;96497.03;;;23.87;nan
34328;BME280;20588;48.840;10.064;2022-11-25T09:01:16;96496.84;;;23.70;nan
34328;BME280;20588;48.840;10.064;2022-11-25T09:03:44;96494.13;;;24.37;nan
34328;BME280;20588;48.840;10.064;2022-11-25T09:06:12;96485.81;;;24.44;nan
34328;BME280;20588;48.840;10.064;2022-11-25T09:08:39;96488.88;;;23.75;nan
34328;BME280;20588;48.840;10.064;2022-11-25T09:11:06;96485.22;;;22.71;nan
34328;BME280;20588;48.840;10.064;2022-11-25T09:13:33;96490.53;;;22.66;nan
34328;BME280;20588;48.840;10.064;2022-11-25T09:15:59;96486.06;;;22.48;nan
34328;BME280;20588;48.840;10.064;2022-11-25T09:18:26;96485.38;;;21.87;nan
34328;BME280;20588;48.840;10.064;2022-11-25T09:20:56;96487.97;;;20.54;nan
34328;BME280;20588;48.840;10.064;2022-11-25T09:23:22;96484.94;;;19.04;nan
34328;BME280;20588;48.840;10.064;2022-11-25T09:25:56;96489.13;;;17.53;nan
34328;BME280;20588;48.840;10.064;2022-11-25T09:28:23;96492.19;;;16.41;nan
34328;BME280;20588;48.840;10.064;2022-11-25T09:30:50;96493.91;;;15.55;nan
34328;BME280;20588;48.840;10.064;2022-11-25T09:33:17;96498.50;;;14.77;nan
34328;BME280;20588;48.840;10.064;2022-11-25T09:35:43;96494.56;;;14.13;nan
34328;BME280;20588;48.840;10.064;2022-11-25T09:38:10;96502.63;;;13.61;nan
34328;BME280;20588;48.840;10.064;2022-11-25T09:40:53;96502.34;;;13.23;nan
34328;BME280;20588;48.840;10.064;2022-11-25T09:49:21;96493.25;;;12.21;nan
34328;BME280;20588;48.840;10.064;2022-11-25T09:54:26;96492.78;;;11.83;nan
34328;BME280;20588;48.840;10.064;2022-11-25T09:57:02;96494.00;;;12.10;nan
34328;BME280;20588;48.840;10.064;2022-11-25T10:02:38;96497.53;;;12.27;nan
34328;BME280;20588;48.840;10.064;2022-11-25T10:05:14;96497.84;;;12.95;nan
34328;BME280;20588;48.840;10.064;2022-11-25T10:07:45;96509.09;;;13.35;nan
34328;BME280;20588;48.840;10.064;2022-11-25T10:10:18;96514.69;;;13.95;nan
34328;BME280;20588;48.840;10.064;2022-11-25T10:12:48;96512.59;;;15.19;nan
34328;BME280;20588;48.840;10.064;2022-11-25T10:17:51;96519.41;;;15.25;nan
34328;BME280;20588;48.840;10.064;2022-11-25T10:20:30;96517.09;;;14.74;nan
34328;BME280;20588;48.840;10.064;2022-11-25T10:23:19;96516.91;;;14.31;nan
34328;BME280;20588;48.840;10.064;2022-11-25T10:25:47;96520.59;;;14.07;nan
34328;BME280;20588;48.840;10.064;2022-11-25T10:28:18;96520.03;;;14.05;nan
34328;BME280;20588;48.840;10.064;2022-11-25T10:31:15;96526.72;;;13.89;nan
34328;BME280;20588;48.840;10.064;2022-11-25T10:33:43;96521.38;;;13.79;nan
34328;BME280;20588;48.840;10.064;2022-11-25T10:36:32;96522.47;;;13.83;nan
34328;BME280;20588;48.840;10.064;2022-11-25T10:39:10;96514.75;;;14.00;nan
34328;BME280;20588;48.840;10.064;2022-11-25T10:44:45;96518.75;;;14.80;nan
34328;BME280;20588;48.840;10.064;2022-11-25T10:47:36;96515.72;;;15.21;nan
34328;BME280;20588;48.840;10.064;2022-11-25T10:50:24;96518.63;;;17.79;nan
34328;BME280;20588;48.840;10.064;2022-11-25T10:55:25;96514.63;;;20.89;nan
34328;BME280;20588;48.840;10.064;2022-11-25T10:57:53;96509.88;;;20.24;nan
34328;BME280;20588;48.840;10.064;2022-11-25T11:00:35;96511.78;;;19.15;nan
34328;BME280;20588;48.840;10.064;2022-11-25T11:03:23;96518.88;;;18.79;nan
34328;BME280;20588;48.840;10.064;2022-11-25T11:05:51;96509.94;;;20.14;nan
34328;BME280;20588;48.840;10.064;2022-11-25T11:08:24;96507.34;;;20.81;nan
34328;BME280;20588;48.840;10.064;2022-11-25T11:13:40;96513.00;;;19.57;nan
34328;BME280;20588;48.840;10.064;2022-11-25T11:16:35;96512.31;;;18.62;nan
34328;BME280;20588;48.840;10.064;2022-11-25T11:19:02;96508.84;;;18.16;nan
34328;BME280;20588;48.840;10.064;2022-11-25T11:21:44;96510.75;;;17.59;nan
34328;BME280;20588;48.840;10.064;2022-11-25T11:24:32;96517.81;;;16.85;nan
34328;BME280;20588;48.840;10.064;2022-11-25T11:29:35;96522.19;;;15.78;nan
34328;BME280;20588;48.840;10.064;2022-11-25T11:32:04;96525.16;;;15.27;nan
34328;BME280;20588;48.840;10.064;2022-11-25T11:34:54;96531.66;;;14.75;nan
34328;BME280;20588;48.840;10.064;2022-11-25T11:37:43;96526.97;;;14.16;nan
34328;BME280;20588;48.840;10.064;2022-11-25T11:45:35;96525.63;;;13.11;nan
34328;BME280;20588;48.840;10.064;2022-11-25T11:48:37;96530.63;;;12.83;nan
34328;BME280;20588;48.840;10.064;2022-11-25T11:51:16;96541.25;;;12.63;nan
34328;BME280;20588;48.840;10.064;2022-11-25T11:53:58;96547.44;;;12.51;nan
34328;BME280;20588;48.840;10.064;2022-11-25T11:56:36;96545.69;;;12.33;nan
34328;BME280;20588;48.840;10.064;2022-11-25T12:07:20;96565.06;;;11.77;nan
34328;BME280;20588;48.840;10.064;2022-11-25T12:09:56;96572.31;;;11.62;nan
34328;BME280;20588;48.840;10.064;2022-11-25T12:12:44;96568.81;;;11.56;nan
34328;BME280;20588;48.840;10.064;2022-11-25T12:21:00;96569.78;;;10.94;nan
34328;BME280;20588;48.840;10.064;2022-11-25T12:23:50;96582.41;;;10.78;nan
34328;BME280;20588;48.840;10.064;2022-11-25T12:26:28;96586.25;;;10.62;nan
34328;BME280;20588;48.840;10.064;2022-11-25T12:29:01;96582.75;;;10.57;nan
34328;BME280;20588;48.840;10.064;2022-11-25T12:31:38;96594.31;;;10.41;nan
34328;BME280;20588;48.840;10.064;2022-11-25T12:34:11;96596.38;;;10.26;nan
34328;BME280;20588;48.840;10.064;2022-11-25T12:36:45;96602.16;;;10.15;nan
34328;BME280;20588;48.840;10.064;2022-11-25T12:39:38;96612.69;;;10.01;nan
34328;BME280;20588;48.840;10.064;2022-11-25T12:42:18;96610.72;;;9.96;nan
34328;BME280;20588;48.840;10.064;2022-11-25T12:45:13;96615.69;;;9.85;nan
34328;BME280;20588;48.840;10.064;2022-11-25T12:47:42;96610.78;;;9.70;nan
34328;BME280;20588;48.840;10.064;2022-11-25T12:50:17;96612.41;;;9.65;nan
34328;BME280;20588;48.840;10.064;2022-11-25T12:52:52;96610.63;;;9.59;nan
34328;BME280;20588;48.840;10.064;2022-11-25T12:55:22;96613.19;;;9.59;nan
34328;BME280;20588;48.840;10.064;2022-11-25T13:06:48;96634.97;;;9.24;nan
34328;BME280;20588;48.840;10.064;2022-11-25T13:09:55;96640.69;;;9.19;nan
34328;BME280;20588;48.840;10.064;2022-11-25T13:15:25;96635.16;;;9.09;nan
34328;BME280;20588;48.840;10.064;2022-11-25T13:17:56;96638.91;;;9.06;nan
34328;BME280;20588;48.840;10.064;2022-11-25T13:25:31;96646.00;;;9.04;nan
34328;BME280;20588;48.840;10.064;2022-11-25T13:28:00;96642.09;;;9.08;nan
34328;BME280;20588;48.840;10.064;2022-11-25T13:33:50;96647.38;;;9.33;nan
34328;BME280;20588;48.840;10.064;2022-11-25T13:36:22;96649.19;;;9.33;nan
34328;BME280;20588;48.840;10.064;2022-11-25T13:43:57;96644.84;;;9.20;nan
34328;BME280;20588;48.840;10.064;2022-11-25T13:46:39;96658.47;;;9.21;nan
34328;BME280;20588;48.840;10.064;2022-11-25T13:52:22;96658.44;;;9.07;nan
34328;BME280;20588;48.840;10.064;2022-11-25T13:54:53;96668.94;;;8.99;nan
34328;BME280;20588;48.840;10.064;2022-11-25T13:57:27;96676.59;;;8.93;nan
34328;BME280;20588;48.840;10.064;2022-11-25T14:00:40;96667.13;;;8.87;nan
34328;BME280;20588;48.840;10.064;2022-11-25T14:02:54;96679.97;;;8.87;nan
34328;BME280;20588;48.840;10.064;2022-11-25T14:06:08;96678.38;;;8.86;nan
34328;BME280;20588;48.840;10.064;2022-11-25T14:11:30;96693.56;;;8.81;nan
34328;BME280;20588;48.840;10.064;2022-11-25T14:19:48;96700.63;;;8.72;nan
34328;BME280;20588;48.840;10.064;2022-11-25T14:25:13;96711.66;;;8.66;nan
34328;BME280;20588;48.840;10.064;2022-11-25T14:27:46;96709.50;;;8.70;nan
34328;BME280;20588;48.840;10.064;2022-11-25T14:30:14;96709.91;;;8.67;nan
34328;BME280;20588;48.840;10.064;2022-11-25T14:33:00;96724.47;;;8.60;nan
34328;BME280;20588;48.840;10.064;2022-11-25T14:35:35;96726.81;;;8.55;nan
34328;BME280;20588;48.840;10.064;2022-11-25T14:38:15;96724.47;;;8.60;nan
34328;BME280;20588;48.840;10.064;2022-11-25T14:40:52;96726.81;;;8.55;nan
34328;BME280;20588;48.840;10.064;2022-11-25T14:43:22;96735.31;;;8.55;nan
34328;BME280;20588;48.840;10.064;2022-11-25T14:46:16;96730.78;;;8.57;nan
34328;BME280;20588;48.840;10.064;2022-11-25T14:48:43;96742.03;;;8.56;nan
34328;BME280;20588;48.840;10.064;2022-11-25T14:51:11;96748.94;;;8.62;nan
34328;BME280;20588;48.840;10.064;2022-11-25T14:53:45;96737.31;;;8.60;nan
34328;BME280;20588;48.840;10.064;2022-11-25T14:56:13;96746.56;;;8.61;nan
34328;BME280;20588;48.840;10.064;2022-11-25T14:58:41;96752.13;;;8.64;nan
34328;BME280;20588;48.840;10.064;2022-11-25T15:01:22;96761.16;;;8.60;nan